Time;durP1;ratioP1;P1;durP2;ratioP2;P2;SDS_P1;SDS_P2;PMS_P1;PMS_P2;Temp;Humidity;BMP_temperature;BMP_pressure;BME280_temperature;BME280_humidity;BME280_pressure;Samples;Min_cycle;Max_cycle;Signal;HPM_P1;HPM_P2
2023/09/01 00:01:39;;;;;;;7.63;3.20;;;;;;;25.84;51.75;99667.75;5132757;27;20458;-42
2023/09/01 00:04:04;;;;;;;3.95;3.00;;;;;;;25.88;51.30;99669.53;5132892;27;20023;-44
2023/09/01 00:06:30;;;;;;;5.97;2.95;;;;;;;25.84;50.99;99663.09;5132993;27;20026;-44
2023/09/01 00:08:55;;;;;;;4.63;2.90;;;;;;;25.79;50.79;99660.47;5132770;27;20061;-42
2023/09/01 00:11:21;;;;;;;4.45;2.70;;;;;;;25.72;50.18;99650.00;5132768;27;20102;-43
2023/09/01 00:13:47;;;;;;;7.40;3.00;;;;;;;25.76;49.71;99663.81;5132510;27;20399;-43
2023/09/01 00:16:13;;;;;;;3.80;2.90;;;;;;;25.69;49.98;99664.22;5132438;27;20027;-42
2023/09/01 00:18:38;;;;;;;6.82;3.00;;;;;;;25.68;50.08;99656.34;5132585;27;20027;-44
2023/09/01 00:21:04;;;;;;;5.20;2.90;;;;;;;25.65;50.31;99657.78;5132674;27;20439;-42
2023/09/01 00:23:29;;;;;;;4.97;2.80;;;;;;;25.64;50.69;99666.25;5132384;27;20030;-44
2023/09/01 00:25:56;;;;;;;3.75;2.80;;;;;;;25.63;50.54;99661.94;5132279;27;20050;-41
2023/09/01 00:28:22;;;;;;;3.83;2.83;;;;;;;25.65;50.68;99659.72;5132133;27;20424;-43
2023/09/01 00:31:06;;;;;;;6.72;3.00;;;;;;;25.64;51.23;99663.53;5132272;27;20062;-42
2023/09/01 00:33:31;;;;;;;4.07;2.88;;;;;;;25.73;50.47;99670.66;5132445;27;20034;-45
2023/09/01 00:35:58;;;;;;;4.18;2.78;;;;;;;25.60;50.25;99663.34;5132306;27;20016;-43
2023/09/01 00:38:29;;;;;;;4.38;3.10;;;;;;;25.54;51.34;99670.81;5132765;27;20022;-43
2023/09/01 00:40:54;;;;;;;6.30;3.30;;;;;;;25.51;51.63;99676.88;5132644;27;20019;-43
2023/09/01 00:43:20;;;;;;;7.07;3.08;;;;;;;25.46;52.48;99679.69;5132867;27;20034;-42
2023/09/01 00:45:46;;;;;;;4.97;3.15;;;;;;;25.47;52.54;99669.59;5131685;27;20023;-43
2023/09/01 00:48:15;;;;;;;7.53;3.28;;;;;;;25.51;52.79;99670.59;5124229;27;20028;-44
2023/09/01 00:50:41;;;;;;;8.68;3.53;;;;;;;25.46;53.21;99670.75;5111832;28;20024;-43
2023/09/01 00:53:07;;;;;;;5.50;3.15;;;;;;;25.33;54.14;99680.53;5112132;28;20047;-42
2023/09/01 00:55:33;;;;;;;4.13;2.90;;;;;;;25.36;53.66;99674.47;5130139;27;20031;-44
2023/09/01 00:58:02;;;;;;;4.65;3.03;;;;;;;25.32;54.06;99684.34;5132412;27;20115;-43
2023/09/01 01:00:31;;;;;;;5.70;3.40;;;;;;;25.39;53.62;99689.41;5132455;27;20032;-44
2023/09/01 01:02:59;;;;;;;6.07;3.60;;;;;;;25.40;53.72;99686.38;5132420;27;20027;-43
2023/09/01 01:05:37;;;;;;;5.60;3.28;;;;;;;25.19;54.69;99688.66;5132197;27;20038;-43
2023/09/01 01:08:35;;;;;;;4.68;3.30;;;;;;;24.03;57.52;99684.88;5131839;27;20126;-43
2023/09/01 01:11:44;;;;;;;7.07;2.92;;;;;;;23.76;59.20;99695.28;5132167;27;20121;-45
2023/09/01 01:14:23;;;;;;;5.25;3.47;;;;;;;23.75;59.27;99703.72;5028692;28;20128;-44
2023/09/01 01:16:51;;;;;;;5.75;2.95;;;;;;;23.65;57.36;99698.44;5124860;27;20049;-44
2023/09/01 01:19:31;;;;;;;3.37;2.63;;;;;;;23.67;57.14;99699.75;5132217;27;20422;-44
2023/09/01 01:21:59;;;;;;;5.35;3.13;;;;;;;23.75;57.11;99701.81;5132042;27;20038;-46
2023/09/01 01:24:26;;;;;;;6.40;2.60;;;;;;;23.84;56.88;99706.59;5132401;27;20023;-46
2023/09/01 01:26:52;;;;;;;5.18;2.97;;;;;;;23.78;56.57;99706.69;5131555;27;20023;-44
2023/09/01 01:29:18;;;;;;;3.83;2.70;;;;;;;23.66;54.75;99708.97;5132244;27;20046;-44
2023/09/01 01:31:43;;;;;;;5.53;2.70;;;;;;;23.81;53.03;99708.00;5131809;27;20449;-45
2023/09/01 01:34:35;;;;;;;4.15;2.30;;;;;;;23.78;51.74;99701.28;5132115;27;20371;-44
2023/09/01 01:37:04;;;;;;;4.22;2.40;;;;;;;23.75;52.07;99699.09;5131942;27;20035;-44
2023/09/01 01:39:33;;;;;;;;;;;;;;;23.79;51.82;99697.44;5132517;27;20054;-44
2023/09/01 01:42:18;;;;;;;4.10;2.63;;;;;;;23.76;52.08;99689.84;5131408;27;19907;-44
2023/09/01 01:44:47;;;;;;;4.65;2.50;;;;;;;23.56;52.33;99690.91;5131841;27;20034;-44
2023/09/01 01:47:14;;;;;;;4.63;2.63;;;;;;;23.56;52.35;99688.19;5131508;27;20157;-43
2023/09/01 01:49:39;;;;;;;5.80;2.67;;;;;;;23.63;51.66;99687.84;5131490;27;20027;-45
2023/09/01 01:52:05;;;;;;;2.85;2.35;;;;;;;23.47;52.07;99681.78;5131743;27;20090;-43
2023/09/01 01:54:31;;;;;;;3.75;2.50;;;;;;;23.48;51.64;99663.63;5131333;27;20019;-42
2023/09/01 01:56:57;;;;;;;3.75;2.33;;;;;;;23.34;52.65;99687.94;5131131;27;20138;-45
2023/09/01 01:59:22;;;;;;;4.32;2.53;;;;;;;23.53;51.86;99688.81;5131138;28;20149;-46
2023/09/01 02:01:48;;;;;;;4.45;2.70;;;;;;;23.47;52.16;99689.13;5131645;28;20027;-42
2023/09/01 02:04:13;;;;;;;4.13;2.30;;;;;;;23.31;52.95;99694.75;5131391;28;20023;-42
2023/09/01 02:06:39;;;;;;;3.50;2.50;;;;;;;23.27;52.78;99691.00;5131038;28;20080;-42
2023/09/01 02:09:09;;;;;;;3.50;2.40;;;;;;;23.32;52.46;99695.56;5131247;28;20015;-44
2023/09/01 02:11:35;;;;;;;4.93;2.72;;;;;;;23.37;52.39;99693.59;5131188;28;20387;-44
2023/09/01 02:14:00;;;;;;;3.58;2.65;;;;;;;23.28;52.80;99694.53;5131391;28;20027;-43
2023/09/01 02:16:26;;;;;;;3.08;2.30;;;;;;;23.30;52.61;99695.84;5131420;28;20030;-42
2023/09/01 02:18:51;;;;;;;5.07;2.63;;;;;;;23.33;52.74;99703.41;5131006;28;20246;-47
2023/09/01 02:21:20;;;;;;;4.40;2.55;;;;;;;23.26;52.69;99694.00;5131797;28;20031;-45
2023/09/01 02:23:46;;;;;;;;;;;;;;;23.19;53.06;99691.66;5131963;28;20047;-45
2023/09/01 02:26:22;;;;;;;4.22;2.70;;;;;;;23.05;53.49;99682.56;5131471;28;20062;-46
2023/09/01 02:28:48;;;;;;;6.00;2.60;;;;;;;23.01;52.96;99672.25;5131376;28;20109;-45
2023/09/01 02:31:14;;;;;;;4.40;2.60;;;;;;;22.89;53.39;99676.47;5131432;28;20039;-43
2023/09/01 02:33:40;;;;;;;4.53;2.50;;;;;;;22.87;53.44;99684.09;5131120;28;20042;-43
2023/09/01 02:36:30;;;;;;;5.30;2.60;;;;;;;22.82;53.39;99677.59;5131079;28;20442;-43
2023/09/01 02:38:57;;;;;;;4.68;2.85;;;;;;;22.78;53.89;99676.56;5130927;28;20027;-45
2023/09/01 02:41:23;;;;;;;5.07;3.17;;;;;;;22.82;53.68;99674.88;5112810;28;20031;-44
2023/09/01 02:43:49;;;;;;;3.45;2.40;;;;;;;22.75;53.67;99671.72;5130136;28;20447;-42
2023/09/01 02:46:15;;;;;;;3.42;2.40;;;;;;;22.86;53.35;99669.69;5130551;27;20131;-43
2023/09/01 02:48:40;;;;;;;4.10;2.58;;;;;;;23.19;51.97;99667.22;5133393;27;20381;-43
2023/09/01 02:51:06;;;;;;;5.07;2.60;;;;;;;23.60;50.58;99678.38;5134496;27;20086;-43
2023/09/01 02:53:36;;;;;;;4.20;2.42;;;;;;;23.88;48.33;99672.34;5134496;27;20022;-44
2023/09/01 02:56:02;;;;;;;5.10;2.63;;;;;;;23.93;48.89;99670.38;5134169;27;20023;-42
2023/09/01 02:58:28;;;;;;;3.20;2.35;;;;;;;24.16;47.24;99676.81;5133908;27;20047;-42
2023/09/01 03:00:53;;;;;;;5.18;2.83;;;;;;;24.08;48.16;99688.34;5134687;27;20031;-39
2023/09/01 03:03:19;;;;;;;4.07;2.35;;;;;;;24.16;48.00;99689.56;5134350;27;20043;-40
2023/09/01 03:05:49;;;;;;;3.08;2.33;;;;;;;24.01;48.45;99682.47;5133498;27;20023;-40
2023/09/01 03:08:15;;;;;;;5.22;2.30;;;;;;;24.12;48.07;99686.66;5131001;27;20023;-40
2023/09/01 03:10:41;;;;;;;4.70;2.58;;;;;;;24.17;48.19;99683.84;5133890;27;20141;-41
2023/09/01 03:13:07;;;;;;;3.63;2.42;;;;;;;24.22;48.11;99680.25;5133592;27;20034;-41
2023/09/01 03:15:32;;;;;;;4.43;2.90;;;;;;;24.24;48.08;99677.22;5134038;27;20027;-40
2023/09/01 03:17:58;;;;;;;4.50;2.50;;;;;;;24.15;48.17;99680.63;5134469;27;20026;-40
2023/09/01 03:20:24;;;;;;;6.10;2.78;;;;;;;23.91;48.64;99686.16;5134303;27;20034;-40
2023/09/01 03:22:50;;;;;;;3.42;2.42;;;;;;;23.98;48.56;99678.41;5133974;27;20026;-40
2023/09/01 03:25:17;;;;;;;4.47;2.60;;;;;;;23.68;48.95;99679.63;5133596;27;20042;-40
2023/09/01 03:27:43;;;;;;;4.00;2.55;;;;;;;23.63;49.17;99679.72;5133582;27;20038;-39
2023/09/01 03:30:10;;;;;;;4.88;2.58;;;;;;;23.59;49.03;99684.91;5115132;27;20030;-40
2023/09/01 03:32:35;;;;;;;5.00;2.80;;;;;;;23.53;49.37;99686.09;5133735;27;20430;-41
2023/09/01 03:35:00;;;;;;;5.55;2.60;;;;;;;23.30;49.70;99676.84;5133445;27;20038;-42
2023/09/01 03:37:26;;;;;;;14.60;9.80;;;;;;;23.25;50.02;99684.22;5133700;27;20094;-40
2023/09/01 03:39:52;;;;;;;10.60;7.43;;;;;;;22.78;51.16;99681.19;5133644;27;20022;-40
2023/09/01 03:42:18;;;;;;;7.32;4.85;;;;;;;22.84;51.12;99677.31;5133454;27;20023;-39
2023/09/01 03:44:43;;;;;;;6.93;3.80;;;;;;;22.35;52.72;99679.13;5133215;27;20525;-41
2023/09/01 03:47:10;;;;;;;8.10;2.80;;;;;;;22.21;53.09;99684.31;5133226;27;20061;-40
2023/09/01 03:49:35;;;;;;;4.75;2.80;;;;;;;22.59;52.15;99676.44;5133432;27;20535;-40
2023/09/01 03:52:01;;;;;;;3.42;2.58;;;;;;;22.57;52.32;99675.13;5133358;27;20134;-40
2023/09/01 03:54:26;;;;;;;5.03;2.67;;;;;;;22.62;52.05;99684.03;5132762;27;20046;-39
2023/09/01 03:56:52;;;;;;;4.47;2.70;;;;;;;22.51;52.36;99689.84;5133093;27;20023;-40
2023/09/01 03:59:18;;;;;;;4.65;2.50;;;;;;;22.40;52.42;99687.19;5132277;27;20051;-39
2023/09/01 04:01:44;;;;;;;3.78;2.60;;;;;;;22.48;52.06;99693.91;5133228;27;20114;-39
2023/09/01 04:04:10;;;;;;;6.68;3.22;;;;;;;22.92;51.00;99686.72;5134126;27;20121;-40
2023/09/01 04:06:35;;;;;;;5.70;3.05;;;;;;;23.31;49.66;99683.91;5133719;27;20098;-40
2023/09/01 04:09:01;;;;;;;3.15;2.45;;;;;;;23.48;48.80;99690.78;5133790;27;20450;-40
2023/09/01 04:11:26;;;;;;;4.85;2.60;;;;;;;23.47;48.85;99691.84;5134081;27;20042;-41
2023/09/01 04:13:52;;;;;;;3.67;2.72;;;;;;;23.42;49.00;99698.16;5134004;27;20019;-40
2023/09/01 04:16:17;;;;;;;9.10;4.85;;;;;;;23.76;48.40;99706.16;5133880;27;20035;-39
2023/09/01 04:18:43;;;;;;;3.78;2.63;;;;;;;23.79;48.15;99704.78;5133585;27;20026;-38
2023/09/01 04:21:08;;;;;;;3.80;2.40;;;;;;;23.86;47.92;99702.53;5133307;27;20030;-39
2023/09/01 04:23:34;;;;;;;4.63;2.58;;;;;;;23.87;47.57;99712.28;5134034;27;20027;-40
2023/09/01 04:26:00;;;;;;;6.03;2.70;;;;;;;23.63;48.19;99706.88;5133608;27;20022;-40
2023/09/01 04:28:26;;;;;;;5.53;3.00;;;;;;;24.02;47.63;99705.81;5133003;27;20482;-41
2023/09/01 04:30:51;;;;;;;4.05;2.47;;;;;;;23.76;48.40;99706.16;5133142;27;20546;-40
2023/09/01 04:33:17;;;;;;;4.32;2.47;;;;;;;23.90;48.22;99708.19;5132166;27;20019;-40
2023/09/01 04:35:43;;;;;;;4.28;2.45;;;;;;;23.84;47.77;99706.59;5133187;27;20019;-40
2023/09/01 04:38:09;;;;;;;3.97;2.22;;;;;;;23.55;48.59;99702.06;5130867;27;20367;-41
2023/09/01 04:40:34;;;;;;;3.15;2.20;;;;;;;23.94;47.46;99709.22;5131341;27;20072;-40
2023/09/01 04:43:00;;;;;;;5.28;2.78;;;;;;;23.93;47.37;99719.28;5131257;27;20100;-39
2023/09/01 04:45:25;;;;;;;4.90;2.40;;;;;;;24.16;46.62;99708.59;5131178;27;20133;-40
2023/09/01 04:47:51;;;;;;;3.97;2.40;;;;;;;24.53;46.05;99717.88;5131759;27;20031;-41
2023/09/01 04:50:17;;;;;;;6.05;2.80;;;;;;;24.80;45.02;99714.41;5131802;27;20023;-42
2023/09/01 04:52:42;;;;;;;3.63;2.45;;;;;;;25.31;43.91;99712.69;5130910;27;20517;-41
2023/09/01 04:55:09;;;;;;;4.15;2.50;;;;;;;25.62;43.15;99717.53;5131776;27;20031;-41
2023/09/01 04:57:36;;;;;;;3.67;2.55;;;;;;;25.77;42.74;99703.56;5131327;27;20091;-40
2023/09/01 05:00:02;;;;;;;3.67;2.42;;;;;;;26.05;42.40;99714.44;5131854;27;20026;-40
2023/09/01 05:02:28;;;;;;;3.40;2.53;;;;;;;26.46;41.71;99719.72;5132753;27;20030;-40
2023/09/01 05:04:53;;;;;;;4.25;2.40;;;;;;;26.20;41.77;99695.00;5132558;27;20015;-42
2023/09/01 05:07:19;;;;;;;3.13;2.25;;;;;;;26.45;41.45;99717.34;5132284;27;20408;-40
2023/09/01 05:09:44;;;;;;;4.82;2.72;;;;;;;26.32;41.86;99716.28;5130008;27;20076;-39
2023/09/01 05:12:09;;;;;;;4.75;2.33;;;;;;;26.24;42.20;99714.28;5126407;27;20186;-43
2023/09/01 05:14:35;;;;;;;4.10;2.60;;;;;;;26.48;41.78;99714.81;5132582;27;20026;-42
2023/09/01 05:17:00;;;;;;;3.63;2.80;;;;;;;26.64;41.76;99703.53;5113645;27;20482;-42
2023/09/01 05:19:26;;;;;;;3.75;2.63;;;;;;;26.85;41.13;99712.00;5131722;27;20466;-40
2023/09/01 05:21:51;;;;;;;6.25;2.90;;;;;;;27.20;40.77;99715.69;5130780;27;20409;-42
2023/09/01 05:24:17;;;;;;;5.35;2.72;;;;;;;27.42;40.25;99719.50;5131305;27;20394;-41
2023/09/01 05:26:42;;;;;;;5.03;2.90;;;;;;;27.48;39.93;99719.03;5131965;27;20019;-41
2023/09/01 05:29:08;;;;;;;4.00;2.40;;;;;;;27.39;40.12;99720.13;5131305;27;20015;-39
2023/09/01 05:31:33;;;;;;;5.90;2.90;;;;;;;27.64;39.68;99726.78;5131612;27;20042;-41
2023/09/01 05:33:59;;;;;;;4.97;2.58;;;;;;;27.74;39.60;99722.94;5131561;27;20402;-41
2023/09/01 05:36:24;;;;;;;4.15;2.70;;;;;;;27.78;39.56;99727.47;5131609;27;20031;-40
2023/09/01 05:38:49;;;;;;;4.28;2.70;;;;;;;28.17;38.88;99727.69;5131394;27;20034;-40
2023/09/01 05:41:15;;;;;;;5.63;2.70;;;;;;;28.56;38.31;99734.13;5131967;27;20099;-41
2023/09/01 05:43:40;;;;;;;8.20;3.10;;;;;;;28.87;37.55;99733.13;5131803;27;20022;-42
2023/09/01 05:46:06;;;;;;;5.97;3.10;;;;;;;28.96;37.61;99734.69;5131809;27;20034;-42
2023/09/01 05:48:31;;;;;;;5.40;3.40;;;;;;;28.36;38.16;99736.38;5131576;27;20106;-42
2023/09/01 05:50:57;;;;;;;4.18;2.60;;;;;;;29.02;37.50;99747.06;5131373;27;20031;-43
2023/09/01 05:53:22;;;;;;;7.50;3.65;;;;;;;29.35;36.41;99748.44;5131331;27;20467;-40
2023/09/01 05:55:48;;;;;;;3.42;2.30;;;;;;;29.37;36.02;99746.97;5130659;27;20106;-42
2023/09/01 05:58:13;;;;;;;4.43;2.38;;;;;;;29.59;35.74;99751.38;5131199;27;20054;-41
2023/09/01 06:00:40;;;;;;;3.33;2.42;;;;;;;29.70;35.21;99748.25;5131363;27;20027;-40
2023/09/01 06:03:05;;;;;;;4.25;2.60;;;;;;;29.89;35.06;99756.06;5131797;28;20027;-41
2023/09/01 06:05:31;;;;;;;4.97;2.85;;;;;;;30.04;34.78;99752.72;5131339;28;20023;-41
2023/09/01 06:07:56;;;;;;;3.65;2.40;;;;;;;28.88;35.68;99743.72;5131281;28;20033;-42
2023/09/01 06:10:22;;;;;;;5.28;2.30;;;;;;;29.46;35.39;99749.69;5131281;28;20015;-42
2023/09/01 06:12:47;;;;;;;4.65;2.65;;;;;;;30.11;34.33;99750.25;5131082;28;20101;-41
2023/09/01 06:15:13;;;;;;;3.70;2.20;;;;;;;29.89;34.84;99750.56;5131378;28;20034;-42
2023/09/01 06:17:38;;;;;;;3.95;2.40;;;;;;;30.21;34.10;99746.31;5131001;28;20479;-42
2023/09/01 06:20:06;;;;;;;2.92;2.10;;;;;;;30.90;33.40;99752.34;5131099;28;20015;-42
2023/09/01 06:22:32;;;;;;;4.47;2.40;;;;;;;30.88;32.75;99758.16;5134136;27;20038;-41
2023/09/01 06:24:57;;;;;;;3.33;2.38;;;;;;;30.87;33.04;99750.25;5135018;27;20019;-43
2023/09/01 06:27:23;;;;;;;5.85;2.78;;;;;;;30.67;33.45;99749.94;5134918;27;20027;-42
2023/09/01 06:29:48;;;;;;;3.28;2.55;;;;;;;30.45;34.20;99766.81;5134723;27;20026;-43
2023/09/01 06:32:14;;;;;;;6.22;3.33;;;;;;;30.57;33.50;99761.38;5135508;27;20046;-40
2023/09/01 06:34:39;;;;;;;4.50;2.65;;;;;;;30.80;33.09;99754.34;5135011;27;20542;-41
2023/09/01 06:37:05;;;;;;;3.17;2.20;;;;;;;30.95;32.53;99758.41;5134544;27;20113;-42
2023/09/01 06:39:30;;;;;;;5.28;2.88;;;;;;;31.20;32.51;99757.66;5134804;27;20103;-42
2023/09/01 06:41:57;;;;;;;4.65;2.53;;;;;;;31.19;32.52;99762.38;5135321;27;20027;-42
2023/09/01 06:44:22;;;;;;;4.65;2.40;;;;;;;31.71;31.93;99769.97;5134908;27;20482;-42
2023/09/01 06:46:49;;;;;;;5.70;3.10;;;;;;;31.89;31.96;99776.03;5120023;27;20027;-42
2023/09/01 06:49:15;;;;;;;3.92;2.67;;;;;;;32.14;31.41;99770.50;5118585;27;20024;-45
2023/09/01 06:51:41;;;;;;;3.53;2.58;;;;;;;31.77;32.03;99778.78;5131098;27;20065;-42
2023/09/01 06:54:06;;;;;;;3.15;2.53;;;;;;;31.05;33.00;99776.41;5123055;27;20028;-43
2023/09/01 06:56:32;;;;;;;3.90;2.70;;;;;;;30.90;33.02;99780.63;5134477;27;20057;-43
2023/09/01 06:58:57;;;;;;;4.53;3.00;;;;;;;31.55;32.37;99789.13;5134692;27;20039;-44
2023/09/01 07:01:22;;;;;;;4.05;2.67;;;;;;;31.78;31.77;99783.16;5133996;27;20028;-42
2023/09/01 07:03:48;;;;;;;3.47;2.60;;;;;;;32.40;31.36;99778.31;5134145;27;20023;-42
2023/09/01 07:06:13;;;;;;;3.90;2.67;;;;;;;32.30;31.20;99779.63;5133957;27;20075;-42
2023/09/01 07:08:39;;;;;;;4.93;2.80;;;;;;;33.00;30.43;99783.94;5132291;27;20031;-42
2023/09/01 07:11:09;;;;;;;4.70;2.58;;;;;;;33.25;29.99;99775.53;5132746;27;20111;-42
2023/09/01 07:13:34;;;;;;;6.05;2.70;;;;;;;33.26;30.00;99782.63;5132345;27;20023;-42
2023/09/01 07:16:00;;;;;;;3.40;2.42;;;;;;;33.06;30.15;99777.00;5132816;27;20113;-41
2023/09/01 07:18:26;;;;;;;3.58;2.38;;;;;;;33.32;29.78;99784.00;5132173;27;20031;-42
2023/09/01 07:20:52;;;;;;;3.53;2.40;;;;;;;33.73;29.01;99781.81;5129163;27;20489;-41
2023/09/01 07:23:18;;;;;;;3.92;2.63;;;;;;;34.00;29.22;99787.56;5134227;27;20023;-42
2023/09/01 07:25:44;;;;;;;5.63;2.65;;;;;;;33.04;29.70;99790.34;5134169;27;20034;-42
2023/09/01 07:28:13;;;;;;;5.97;2.72;;;;;;;32.43;30.29;99793.38;5134158;27;20094;-42
2023/09/01 07:30:38;;;;;;;;;;;;;;;32.83;30.33;99790.56;5134230;27;20075;-43
2023/09/01 07:33:04;;;;;;;5.68;2.55;;;;;;;32.21;31.18;99784.47;5133225;27;19911;-43
2023/09/01 07:35:29;;;;;;;8.00;2.83;;;;;;;32.77;30.53;99793.91;5133971;27;20087;-41
2023/09/01 07:37:55;;;;;;;5.20;2.70;;;;;;;33.30;29.78;99792.63;5131994;27;20030;-44
2023/09/01 07:40:21;;;;;;;4.10;2.80;;;;;;;33.85;29.15;99797.47;5128603;27;20027;-44
2023/09/01 07:42:47;;;;;;;5.65;2.75;;;;;;;33.84;28.90;99793.91;5128904;27;20038;-42
2023/09/01 07:45:13;;;;;;;5.75;2.40;;;;;;;34.53;28.27;99796.19;5133526;27;20106;-45
2023/09/01 07:47:38;;;;;;;5.68;2.88;;;;;;;34.41;28.69;99805.44;5133693;27;20050;-43
2023/09/01 07:50:05;;;;;;;5.38;3.10;;;;;;;33.80;29.06;99790.28;5132960;27;20027;-40
2023/09/01 07:52:30;;;;;;;2.95;2.67;;;;;;;33.58;28.95;99799.97;5133397;27;20031;-43
2023/09/01 07:54:56;;;;;;;2.90;2.40;;;;;;;34.11;27.96;99796.06;5130088;27;20063;-41
2023/09/01 07:57:21;;;;;;;3.47;2.35;;;;;;;34.07;27.97;99793.22;5132211;27;20427;-42
2023/09/01 07:59:46;;;;;;;3.67;2.70;;;;;;;33.75;28.66;99789.75;5132832;27;20039;-45
2023/09/01 08:02:12;;;;;;;5.00;2.60;;;;;;;33.36;28.83;99792.31;5132830;27;20027;-42
2023/09/01 08:04:37;;;;;;;5.03;2.53;;;;;;;34.00;28.47;99796.63;5132909;27;20389;-44
2023/09/01 08:07:03;;;;;;;3.92;2.58;;;;;;;32.88;28.93;99778.47;5133112;27;20543;-42
2023/09/01 08:09:29;;;;;;;4.82;3.00;;;;;;;32.63;29.44;99778.59;5132865;27;20026;-42
2023/09/01 08:11:55;;;;;;;4.45;2.83;;;;;;;33.39;29.59;99783.34;5132809;27;20384;-41
2023/09/01 08:14:21;;;;;;;4.45;2.70;;;;;;;33.95;28.72;99780.38;5132441;27;20023;-44
2023/09/01 08:16:47;;;;;;;2.72;2.40;;;;;;;34.04;28.35;99782.91;5132432;27;20043;-47
2023/09/01 08:19:13;;;;;;;4.93;3.05;;;;;;;34.01;27.70;99787.19;5132705;27;20076;-47
2023/09/01 08:21:38;;;;;;;3.20;2.50;;;;;;;33.60;28.43;99780.31;5132575;27;20494;-44
2023/09/01 08:24:04;;;;;;;4.40;2.55;;;;;;;33.62;28.03;99784.28;5132464;27;20030;-44
2023/09/01 08:26:31;;;;;;;2.70;2.30;;;;;;;33.86;28.14;99780.56;5130999;27;20015;-42
2023/09/01 08:28:56;;;;;;;3.67;2.33;;;;;;;34.21;27.61;99779.75;5131946;27;20050;-42
2023/09/01 08:31:22;;;;;;;2.92;2.30;;;;;;;33.90;28.04;99777.88;5132478;27;20168;-44
2023/09/01 08:33:47;;;;;;;3.78;2.55;;;;;;;34.36;27.45;99783.63;5132549;27;20526;-43
2023/09/01 08:36:13;;;;;;;3.17;2.50;;;;;;;34.51;26.85;99776.41;5132637;27;20095;-43
2023/09/01 08:38:38;;;;;;;3.65;2.30;;;;;;;34.77;26.94;99775.78;5132768;27;20030;-44
2023/09/01 08:41:05;;;;;;;4.28;2.55;;;;;;;35.21;26.28;99767.09;5131146;27;20076;-43
2023/09/01 08:43:35;;;;;;;3.45;2.50;;;;;;;35.39;26.09;99766.59;5132459;27;20049;-41
2023/09/01 08:46:05;;;;;;;3.97;2.80;;;;;;;34.89;26.80;99762.94;5131114;27;20042;-42
2023/09/01 08:48:31;;;;;;;4.95;2.67;;;;;;;34.48;27.73;99757.81;5132180;27;20126;-42
2023/09/01 08:50:57;;;;;;;2.92;2.20;;;;;;;34.56;27.19;99745.75;5132010;27;20069;-43
2023/09/01 08:53:24;;;;;;;3.25;2.30;;;;;;;34.53;27.13;99752.00;5132439;27;20051;-43
2023/09/01 08:55:49;;;;;;;4.15;2.55;;;;;;;35.02;26.69;99742.25;5132196;27;20038;-43
2023/09/01 08:58:17;;;;;;;5.03;2.85;;;;;;;35.17;27.14;99749.66;5131715;27;20039;-43
2023/09/01 09:00:43;;;;;;;2.88;2.58;;;;;;;35.20;26.11;99746.13;5132421;27;20114;-42
2023/09/01 09:03:12;;;;;;;3.92;2.60;;;;;;;35.12;26.47;99741.63;5131805;27;20478;-43
2023/09/01 09:05:38;;;;;;;3.22;2.28;;;;;;;34.47;26.63;99739.66;5132372;27;20030;-46
2023/09/01 09:08:06;;;;;;;3.92;2.35;;;;;;;35.04;26.95;99729.66;5131965;27;20106;-41
2023/09/01 09:10:38;;;;;;;3.60;2.40;;;;;;;34.53;27.34;99740.16;5131870;27;20023;-43
2023/09/01 09:13:24;;;;;;;3.97;2.50;;;;;;;34.93;26.99;99734.19;5131938;27;20039;-43
2023/09/01 09:16:09;;;;;;;3.45;2.30;;;;;;;35.01;26.86;99727.66;5131914;27;20455;-43
2023/09/01 09:18:36;;;;;;;4.65;2.30;;;;;;;34.54;26.81;99730.69;5132005;27;20090;-42
2023/09/01 09:21:02;;;;;;;3.42;2.17;;;;;;;34.85;26.63;99722.22;5131913;27;20104;-45
2023/09/01 09:23:45;;;;;;;4.63;2.38;;;;;;;34.89;25.89;99725.03;5131962;27;20046;-44
2023/09/01 09:26:13;;;;;;;3.22;2.30;;;;;;;35.15;26.32;99734.56;5131964;27;20034;-42
2023/09/01 09:28:39;;;;;;;3.97;2.50;;;;;;;35.27;25.95;99730.84;5131916;27;20038;-43
2023/09/01 09:31:05;;;;;;;2.35;2.00;;;;;;;35.08;25.20;99729.72;5131540;27;20035;-43
2023/09/01 09:33:32;;;;;;;2.97;2.30;;;;;;;35.15;25.68;99726.28;5132119;27;20076;-45
2023/09/01 09:35:58;;;;;;;3.08;2.28;;;;;;;35.18;25.48;99726.34;5131964;27;20455;-43
2023/09/01 09:38:41;;;;;;;3.33;2.22;;;;;;;35.24;25.99;99721.31;5131832;27;20049;-42
2023/09/01 09:41:07;;;;;;;2.80;2.40;;;;;;;35.16;25.87;99725.09;5132029;27;20054;-45
2023/09/01 09:43:46;;;;;;;3.67;2.40;;;;;;;35.50;25.12;99717.75;5131387;27;20043;-43
2023/09/01 09:46:13;;;;;;;4.88;2.42;;;;;;;35.34;25.13;99714.34;5131350;27;20087;-43
2023/09/01 09:48:40;;;;;;;2.90;2.42;;;;;;;35.44;25.21;99706.22;5131318;27;20029;-43
2023/09/01 09:51:10;;;;;;;4.22;3.35;;;;;;;35.37;25.57;99714.41;5131398;27;20023;-43
2023/09/01 09:53:38;;;;;;;2.72;2.42;;;;;;;35.00;25.80;99719.72;5131072;27;20034;-42
2023/09/01 09:56:18;;;;;;;3.33;2.40;;;;;;;35.16;25.41;99708.50;5130600;27;20022;-43
2023/09/01 09:58:46;;;;;;;4.85;2.30;;;;;;;35.26;25.15;99704.34;5131205;27;20039;-41
2023/09/01 10:01:22;;;;;;;2.65;2.13;;;;;;;35.22;24.91;99707.88;5131177;27;20035;-45
2023/09/01 10:03:49;;;;;;;4.25;2.25;;;;;;;34.97;25.06;99704.66;5130975;28;20519;-46
2023/09/01 10:06:16;;;;;;;3.40;2.28;;;;;;;35.11;24.29;99697.75;5130735;28;20019;-43
2023/09/01 10:08:44;;;;;;;4.07;3.00;;;;;;;35.10;24.73;99696.16;5131145;28;20080;-44
2023/09/01 10:11:12;;;;;;;3.55;2.67;;;;;;;35.25;24.96;99700.78;5131418;28;20106;-43
2023/09/01 10:13:39;;;;;;;4.53;2.60;;;;;;;35.49;24.46;99696.00;5130965;28;20031;-44
2023/09/01 10:16:05;;;;;;;3.90;2.60;;;;;;;35.61;24.36;99696.56;5130910;28;20050;-43
2023/09/01 10:18:33;;;;;;;3.63;2.90;;;;;;;35.47;24.20;99693.63;5131417;28;20027;-42
2023/09/01 10:20:59;;;;;;;4.18;3.00;;;;;;;35.36;24.35;99685.16;5131036;28;20073;-42
2023/09/01 10:23:27;;;;;;;5.75;3.90;;;;;;;35.01;23.66;99688.94;5130469;28;20391;-43
2023/09/01 10:26:17;;;;;;;3.07;2.50;;;;;;;35.03;23.56;99681.06;5130379;28;20023;-42
2023/09/01 10:28:59;;;;;;;;;;;;;;;35.02;23.90;99679.47;5131707;28;20092;-44
2023/09/01 10:31:25;;;;;;;4.97;2.60;;;;;;;35.19;24.24;99692.00;5130751;28;19911;-42
2023/09/01 10:34:10;;;;;;;3.33;2.58;;;;;;;35.45;24.00;99684.88;5129999;28;20062;-45
2023/09/01 10:36:37;;;;;;;3.38;2.40;;;;;;;35.46;23.18;99683.72;5129175;28;20408;-45
2023/09/01 10:39:23;;;;;;;3.65;2.47;;;;;;;35.20;23.61;99685.28;5130312;27;20435;-43
2023/09/01 10:41:58;;;;;;;2.78;2.30;;;;;;;35.46;23.06;99683.72;5127185;28;20432;-42
2023/09/01 10:44:47;;;;;;;3.20;2.38;;;;;;;35.37;24.31;99683.97;5130210;28;20030;-44
2023/09/01 10:47:30;;;;;;;3.15;2.25;;;;;;;35.62;22.97;99680.75;5128441;28;20035;-44
2023/09/01 10:49:57;;;;;;;3.58;2.30;;;;;;;35.74;22.69;99680.56;5130337;27;20012;-44
2023/09/01 10:52:23;;;;;;;2.80;2.30;;;;;;;35.29;23.54;99675.97;5129916;28;20067;-46
2023/09/01 10:55:04;;;;;;;3.88;2.30;;;;;;;34.92;24.17;99673.75;5126874;27;20039;-42
2023/09/01 10:57:46;;;;;;;3.70;2.60;;;;;;;35.10;23.93;99674.06;5126560;28;20103;-44
2023/09/01 11:00:32;;;;;;;5.72;2.42;;;;;;;35.02;23.65;99667.63;5122835;28;20060;-44
2023/09/01 11:03:26;;;;;;;4.15;2.30;;;;;;;35.39;23.71;99667.00;5129742;28;20566;-43
2023/09/01 11:06:02;;;;;;;3.72;2.38;;;;;;;35.19;23.45;99660.81;5127637;28;20034;-43
2023/09/01 11:08:28;;;;;;;3.97;2.30;;;;;;;35.30;23.52;99650.69;5129278;27;20386;-44
2023/09/01 11:10:58;;;;;;;3.70;2.22;;;;;;;35.24;23.60;99657.69;5134351;27;20458;-43
2023/09/01 11:13:25;;;;;;;3.30;2.40;;;;;;;35.39;23.80;99648.44;5134527;27;20083;-42
2023/09/01 11:15:51;;;;;;;2.50;2.00;;;;;;;34.82;24.39;99655.81;5133310;27;20051;-43
2023/09/01 11:18:22;;;;;;;3.67;2.42;;;;;;;35.31;23.96;99652.28;5134525;27;20418;-43
2023/09/01 11:20:52;;;;;;;2.97;2.50;;;;;;;35.06;23.88;99649.13;5133158;27;20031;-43
2023/09/01 11:23:22;;;;;;;3.17;2.20;;;;;;;35.29;24.07;99646.31;5129910;27;20038;-43
2023/09/01 11:25:54;;;;;;;3.10;2.53;;;;;;;35.58;22.76;99649.50;5133679;27;20402;-43
2023/09/01 11:28:20;;;;;;;3.38;2.28;;;;;;;35.93;22.94;99645.59;5132391;27;20050;-42
2023/09/01 11:30:52;;;;;;;3.65;2.10;;;;;;;36.22;21.45;99643.19;5130517;27;20027;-45
2023/09/01 11:33:20;;;;;;;3.42;2.45;;;;;;;36.00;21.56;99638.19;5131503;27;20118;-46
2023/09/01 11:35:45;;;;;;;2.78;2.20;;;;;;;35.93;21.30;99638.09;5132212;27;20423;-43
2023/09/01 11:38:21;;;;;;;2.97;2.35;;;;;;;35.33;22.31;99641.63;5133900;27;20470;-42